Time;durP1;ratioP1;P1;durP2;ratioP2;P2;SDS_P1;SDS_P2;PMS_P1;PMS_P2;Temp;Humidity;BMP_temperature;BMP_pressure;BME280_temperature;BME280_humidity;BME280_pressure;Samples;Min_cycle;Max_cycle;Signal;HPM_P1;HPM_P2
2022/08/27 00:02:13;;;;;;;;;;;20.00;54.30;;;;;;5151328;27;20429;-46
2022/08/27 00:04:40;;;;;;;;;;;20.00;53.90;;;;;;5145731;27;19933;-46
2022/08/27 00:07:05;;;;;;;;;;;20.00;53.90;;;;;;5150924;27;19967;-46
2022/08/27 00:09:31;;;;;;;;;;;20.30;61.80;;;;;;5145479;27;19931;-45
2022/08/27 00:11:57;;;;;;;;;;;21.00;65.00;;;;;;5141484;27;19923;-56
2022/08/27 00:14:23;;;;;;;;;;;21.60;65.50;;;;;;5149906;27;20022;-45
2022/08/27 00:16:49;;;;;;;;;;;21.20;61.40;;;;;;5145737;27;20009;-47
2022/08/27 00:19:15;;;;;;;;;;;20.60;58.60;;;;;;5145676;27;20118;-47
2022/08/27 00:21:41;;;;;;;;;;;20.30;57.00;;;;;;5150849;27;20006;-51
2022/08/27 00:24:07;;;;;;;;;;;20.20;55.20;;;;;;5145171;27;19946;-47
2022/08/27 00:26:33;;;;;;;;;;;20.10;54.50;;;;;;5149683;27;19936;-54
2022/08/27 00:28:59;;;;;;;;;;;20.00;53.90;;;;;;5146081;27;20370;-51
2022/08/27 00:31:25;;;;;;;;;;;20.20;60.70;;;;;;5140583;27;19941;-47
2022/08/27 00:33:51;;;;;;;;;;;20.90;65.40;;;;;;5150308;27;20298;-46
2022/08/27 00:36:16;;;;;;;;;;;21.60;65.60;;;;;;5145087;27;19923;-52
2022/08/27 00:38:42;;;;;;;;;;;21.30;62.30;;;;;;5144925;27;20318;-47
2022/08/27 00:41:09;;;;;;;;;;;20.80;59.40;;;;;;5150405;27;20418;-46
2022/08/27 00:43:56;;;;;;;;;;;20.50;57.40;;;;;;5145001;27;19929;-47
2022/08/27 00:46:23;;;;;;;;;;;20.20;55.70;;;;;;5144975;27;19927;-47
2022/08/27 00:48:50;;;;;;;;;;;20.20;54.50;;;;;;5145933;27;19923;-46
2022/08/27 00:51:16;;;;;;;;;;;19.90;54.30;;;;;;5144083;27;19929;-46
2022/08/27 00:53:42;;;;;;;;;;;20.20;58.60;;;;;;5147745;27;19923;-53
2022/08/27 00:56:09;;;;;;;;;;;20.80;64.30;;;;;;5147433;27;19931;-46
2022/08/27 00:58:39;;;;;;;;;;;21.30;66.10;;;;;;5144764;27;19998;-48
2022/08/27 01:01:06;;;;;;;;;;;21.50;63.40;;;;;;5149052;27;20326;-47
2022/08/27 01:03:32;;;;;;;;;;;20.80;59.90;;;;;;5140377;27;19923;-47
2022/08/27 01:05:58;;;;;;;;;;;20.40;57.70;;;;;;5142563;27;19931;-51
2022/08/27 01:08:24;;;;;;;;;;;20.20;56.30;;;;;;5144088;27;19931;-45
2022/08/27 01:10:50;;;;;;;;;;;20.00;55.30;;;;;;5144207;27;19923;-45
2022/08/27 01:13:17;;;;;;;;;;;19.90;54.30;;;;;;5144211;27;20038;-48
2022/08/27 01:15:43;;;;;;;;;;;19.90;54.20;;;;;;5149896;27;20343;-47
2022/08/27 01:18:10;;;;;;;;;;;20.00;55.30;;;;;;5144158;27;19923;-53
2022/08/27 01:20:41;;;;;;;;;;;20.50;62.60;;;;;;5149980;27;19926;-49
2022/08/27 01:23:09;;;;;;;;;;;21.10;65.40;;;;;;5142968;27;20001;-47
2022/08/27 01:25:36;;;;;;;;;;;21.70;65.30;;;;;;5139959;27;19923;-49
2022/08/27 01:28:02;;;;;;;;;;;21.00;60.90;;;;;;5148761;27;19933;-48
2022/08/27 01:30:28;;;;;;;;;;;20.70;58.70;;;;;;5142740;27;19966;-48
2022/08/27 01:32:54;;;;;;;;;;;20.20;57.30;;;;;;5144259;27;19930;-47
2022/08/27 01:35:20;;;;;;;;;;;20.00;55.40;;;;;;5149763;27;19923;-45
2022/08/27 01:37:46;;;;;;;;;;;19.90;54.60;;;;;;5144069;27;19974;-46
2022/08/27 01:40:12;;;;;;;;;;;19.80;55.20;;;;;;5145666;27;19923;-54
2022/08/27 01:42:42;;;;;;;;;;;20.30;62.80;;;;;;5144829;27;20339;-47
2022/08/27 01:45:15;;;;;;;;;;;20.90;66.20;;;;;;5139161;27;19927;-46
2022/08/27 01:47:41;;;;;;;;;;;21.60;65.80;;;;;;5149388;27;19970;-46
2022/08/27 01:50:08;;;;;;;;;;;20.90;61.40;;;;;;5143810;27;19923;-48
2022/08/27 01:52:34;;;;;;;;;;;20.50;58.50;;;;;;5143475;27;20012;-46
2022/08/27 01:54:59;;;;;;;;;;;20.50;56.80;;;;;;5149089;27;19930;-47
2022/08/27 01:57:25;;;;;;;;;;;20.30;55.50;;;;;;5143314;27;19930;-46
2022/08/27 01:59:52;;;;;;;;;;;20.00;55.10;;;;;;5143354;27;19987;-45
2022/08/27 02:02:17;;;;;;;;;;;19.80;54.40;;;;;;5144191;27;19953;-48
2022/08/27 02:04:43;;;;;;;;;;;19.90;55.20;;;;;;5142313;27;19986;-50
2022/08/27 02:07:09;;;;;;;;;;;20.50;62.50;;;;;;5148630;27;20018;-53
2022/08/27 02:09:35;;;;;;;;;;;21.00;65.80;;;;;;5143479;27;19930;-49
2022/08/27 02:12:01;;;;;;;;;;;21.70;66.10;;;;;;5142847;27;19930;-45
2022/08/27 02:14:27;;;;;;;;;;;21.10;62.10;;;;;;5148835;27;20331;-47
2022/08/27 02:16:53;;;;;;;;;;;20.50;59.40;;;;;;5143445;27;20430;-46
2022/08/27 02:19:19;;;;;;;;;;;20.40;57.50;;;;;;5141554;27;20015;-53
2022/08/27 02:21:45;;;;;;;;;;;20.30;55.60;;;;;;5145205;27;19927;-47
2022/08/27 02:24:10;;;;;;;;;;;20.30;55.00;;;;;;5142809;27;19988;-48
2022/08/27 02:26:36;;;;;;;;;;;20.00;54.50;;;;;;5145878;27;20433;-55
2022/08/27 02:29:02;;;;;;;;;;;20.00;58.30;;;;;;5145863;27;19930;-49
2022/08/27 02:31:28;;;;;;;;;;;20.60;64.50;;;;;;5142868;27;19970;-47
2022/08/27 02:33:54;;;;;;;;;;;21.30;65.90;;;;;;5148076;27;19927;-46
2022/08/27 02:36:20;;;;;;;;;;;21.50;63.30;;;;;;5142775;27;19929;-45
2022/08/27 02:38:46;;;;;;;;;;;20.80;60.10;;;;;;5139428;27;19923;-45
2022/08/27 02:41:13;;;;;;;;;;;20.50;57.90;;;;;;5146459;27;19933;-47
2022/08/27 02:43:39;;;;;;;;;;;20.50;55.90;;;;;;5142788;27;19927;-46
2022/08/27 02:46:05;;;;;;;;;;;20.30;55.10;;;;;;5142628;27;19927;-52
2022/08/27 02:48:30;;;;;;;;;;;20.00;54.60;;;;;;5147995;27;19930;-45
2022/08/27 02:50:56;;;;;;;;;;;20.00;56.20;;;;;;5142539;27;20022;-46
2022/08/27 02:53:22;;;;;;;;;;;20.60;63.30;;;;;;5147917;27;20068;-48
2022/08/27 02:55:51;;;;;;;;;;;21.20;65.70;;;;;;5142283;27;20400;-52
2022/08/27 02:58:16;;;;;;;;;;;21.50;63.90;;;;;;5138126;27;19930;-47
2022/08/27 03:00:43;;;;;;;;;;;20.80;60.30;;;;;;5147937;27;19923;-46
2022/08/27 03:03:12;;;;;;;;;;;20.60;57.80;;;;;;5142356;27;20354;-45
2022/08/27 03:05:38;;;;;;;;;;;20.30;55.90;;;;;;5142168;27;19950;-45
2022/08/27 03:08:04;;;;;;;;;;;20.20;55.10;;;;;;5148028;27;19927;-49
2022/08/27 03:10:29;;;;;;;;;;;20.00;54.40;;;;;;5142575;27;20014;-47
2022/08/27 03:12:56;;;;;;;;;;;20.10;60.40;;;;;;5147822;27;19950;-45
2022/08/27 03:15:22;;;;;;;;;;;20.80;64.90;;;;;;5138908;27;19953;-48
2022/08/27 03:20:39;;;;;;;;;;;20.90;61.30;;;;;;5147583;27;19930;-47
2022/08/27 03:23:06;;;;;;;;;;;20.60;58.30;;;;;;5142462;27;20013;-46
2022/08/27 03:25:32;;;;;;;;;;;20.40;56.00;;;;;;5146472;27;19987;-45
2022/08/27 03:27:57;;;;;;;;;;;20.20;55.20;;;;;;5150609;27;19923;-46
2022/08/27 03:30:24;;;;;;;;;;;20.10;54.50;;;;;;5146293;27;20532;-46
2022/08/27 03:32:50;;;;;;;;;;;20.00;54.10;;;;;;5144394;27;20394;-47
2022/08/27 03:35:16;;;;;;;;;;;20.00;53.30;;;;;;5148242;27;19963;-46
2022/08/27 03:37:42;;;;;;;;;;;20.30;60.90;;;;;;5146100;27;20367;-46
2022/08/27 03:40:08;;;;;;;;;;;21.00;64.50;;;;;;5149803;27;19977;-56
2022/08/27 03:42:34;;;;;;;;;;;21.60;65.10;;;;;;5148718;27;20392;-49
2022/08/27 03:45:00;;;;;;;;;;;21.10;61.30;;;;;;5146006;27;19923;-46
2022/08/27 03:47:26;;;;;;;;;;;20.80;58.60;;;;;;5151668;27;19968;-46
2022/08/27 03:49:51;;;;;;;;;;;20.30;56.90;;;;;;5145852;27;19923;-46
2022/08/27 03:52:18;;;;;;;;;;;20.30;55.40;;;;;;5142172;27;19927;-48
2022/08/27 03:54:44;;;;;;;;;;;20.00;54.80;;;;;;5149597;27;20033;-46
2022/08/27 03:57:10;;;;;;;;;;;19.80;54.50;;;;;;5145815;27;20587;-48
2022/08/27 03:59:36;;;;;;;;;;;20.00;57.20;;;;;;5146593;27;19956;-52
2022/08/27 04:02:01;;;;;;;;;;;20.70;62.90;;;;;;5150810;27;19923;-47
2022/08/27 04:04:27;;;;;;;;;;;21.20;65.40;;;;;;5145637;27;19927;-47
2022/08/27 04:06:54;;;;;;;;;;;21.70;63.60;;;;;;5151086;27;20252;-46
2022/08/27 04:09:19;;;;;;;;;;;20.90;60.10;;;;;;5145092;27;19938;-45
2022/08/27 04:11:45;;;;;;;;;;;20.60;57.80;;;;;;5140787;27;19946;-46
2022/08/27 04:14:11;;;;;;;;;;;20.30;56.30;;;;;;5150802;27;19923;-46
2022/08/27 04:16:40;;;;;;;;;;;20.30;54.70;;;;;;5145369;27;19927;-47
2022/08/27 04:19:06;;;;;;;;;;;20.20;54.30;;;;;;5145555;27;20207;-46
2022/08/27 04:21:32;;;;;;;;;;;20.00;53.90;;;;;;5150940;27;20306;-50
2022/08/27 04:23:58;;;;;;;;;;;19.80;55.50;;;;;;5145321;27;19927;-48
2022/08/27 04:26:25;;;;;;;;;;;20.40;61.90;;;;;;5150885;27;19962;-46
2022/08/27 04:28:51;;;;;;;;;;;21.00;64.80;;;;;;5141807;27;20360;-46
2022/08/27 04:31:16;;;;;;;;;;;21.70;64.70;;;;;;5143439;27;19931;-46
2022/08/27 04:33:43;;;;;;;;;;;21.20;60.60;;;;;;5150657;27;20266;-46
2022/08/27 04:36:09;;;;;;;;;;;20.70;58.20;;;;;;5144983;27;19975;-46
2022/08/27 04:38:35;;;;;;;;;;;20.40;56.40;;;;;;5144932;27;20394;-46
2022/08/27 04:41:20;;;;;;;;;;;20.20;55.10;;;;;;5149273;27;20559;-46
2022/08/27 04:43:46;;;;;;;;;;;20.00;54.40;;;;;;5144008;27;19923;-47
2022/08/27 04:46:12;;;;;;;;;;;19.90;54.00;;;;;;5144441;27;19995;-50
2022/08/27 04:48:38;;;;;;;;;;;20.00;55.40;;;;;;5142157;27;19934;-46
2022/08/27 04:51:04;;;;;;;;;;;20.60;62.10;;;;;;5144653;27;19939;-46
2022/08/27 04:53:30;;;;;;;;;;;21.20;64.90;;;;;;5150012;27;19923;-49
2022/08/27 04:55:55;;;;;;;;;;;21.70;63.40;;;;;;5144777;27;19923;-45
2022/08/27 04:58:21;;;;;;;;;;;21.00;59.70;;;;;;5144660;27;19930;-45
2022/08/27 05:00:52;;;;;;;;;;;20.70;57.70;;;;;;5150033;27;20415;-45
2022/08/27 05:03:22;;;;;;;;;;;20.20;56.40;;;;;;5144394;27;19971;-46
2022/08/27 05:05:48;;;;;;;;;;;20.10;54.90;;;;;;5140960;27;20230;-46
2022/08/27 05:08:14;;;;;;;;;;;20.00;54.40;;;;;;5148189;27;19923;-47
2022/08/27 05:10:40;;;;;;;;;;;19.80;54.10;;;;;;5144478;27;20324;-46
2022/08/27 05:13:06;;;;;;;;;;;20.30;61.20;;;;;;5146266;27;19931;-55
2022/08/27 05:15:31;;;;;;;;;;;21.00;64.50;;;;;;5148278;27;19934;-46
2022/08/27 05:17:59;;;;;;;;;;;21.60;64.70;;;;;;5144415;27;19923;-46
2022/08/27 05:20:25;;;;;;;;;;;21.10;60.90;;;;;;5149581;27;20010;-46
2022/08/27 05:22:51;;;;;;;;;;;20.60;58.50;;;;;;5143655;27;20026;-48
2022/08/27 05:25:17;;;;;;;;;;;20.50;56.40;;;;;;5139512;27;19950;-50
2022/08/27 05:27:43;;;;;;;;;;;20.30;55.10;;;;;;5149404;27;19923;-49
2022/08/27 05:30:09;;;;;;;;;;;20.10;54.50;;;;;;5143875;27;19927;-47
2022/08/27 05:32:35;;;;;;;;;;;20.00;54.10;;;;;;5143786;27;19923;-47
2022/08/27 05:35:00;;;;;;;;;;;19.90;54.80;;;;;;5149517;27;19938;-47
2022/08/27 05:37:27;;;;;;;;;;;20.40;62.00;;;;;;5143760;27;19945;-48
2022/08/27 05:39:52;;;;;;;;;;;21.00;64.80;;;;;;5149273;27;20395;-47
2022/08/27 05:42:18;;;;;;;;;;;21.70;65.00;;;;;;5140440;27;19934;-49
2022/08/27 05:44:44;;;;;;;;;;;21.00;60.90;;;;;;5141895;27;20413;-46
2022/08/27 05:47:10;;;;;;;;;;;20.60;58.90;;;;;;5148462;27;19973;-47
2022/08/27 05:49:36;;;;;;;;;;;20.50;56.60;;;;;;5143590;27;19977;-45
2022/08/27 05:52:02;;;;;;;;;;;20.10;55.40;;;;;;5143811;27;20084;-46
2022/08/27 05:54:28;;;;;;;;;;;20.30;54.50;;;;;;5149030;27;19923;-49
2022/08/27 05:56:53;;;;;;;;;;;19.90;54.20;;;;;;5143386;27;19923;-47
2022/08/27 06:02:04;;;;;;;;;;;20.40;61.40;;;;;;5144407;27;20378;-48
2022/08/27 06:04:30;;;;;;;;;;;21.10;64.90;;;;;;5143258;27;19933;-49
2022/08/27 06:06:56;;;;;;;;;;;21.80;64.20;;;;;;5148405;27;19931;-50
2022/08/27 06:09:23;;;;;;;;;;;21.10;60.70;;;;;;5143083;27;19931;-48
2022/08/27 06:11:49;;;;;;;;;;;20.70;57.90;;;;;;5143243;27;20281;-46
2022/08/27 06:14:14;;;;;;;;;;;20.30;56.50;;;;;;5148540;27;19927;-47
2022/08/27 06:16:40;;;;;;;;;;;20.20;55.70;;;;;;5143323;27;19923;-46
2022/08/27 06:19:06;;;;;;;;;;;20.20;54.30;;;;;;5139567;27;20429;-46
2022/08/27 06:21:32;;;;;;;;;;;20.00;53.90;;;;;;5146760;27;19927;-45
2022/08/27 06:23:58;;;;;;;;;;;20.10;55.30;;;;;;5142720;27;19977;-47
2022/08/27 06:26:24;;;;;;;;;;;20.50;63.00;;;;;;5148071;27;19923;-46
2022/08/27 06:28:49;;;;;;;;;;;21.10;64.90;;;;;;5142992;27;19923;-47
2022/08/27 06:31:16;;;;;;;;;;;21.70;63.70;;;;;;5143213;27;19968;-47
2022/08/27 06:33:42;;;;;;;;;;;21.00;60.20;;;;;;5148444;27;19934;-46
2022/08/27 06:36:09;;;;;;;;;;;20.50;58.10;;;;;;5142794;27;20367;-50
2022/08/27 06:38:35;;;;;;;;;;;20.30;56.50;;;;;;5137461;27;20118;-49
2022/08/27 06:41:04;;;;;;;;;;;20.20;55.40;;;;;;5147694;27;20025;-45
2022/08/27 06:43:30;;;;;;;;;;;20.00;54.50;;;;;;5142626;27;19923;-46
2022/08/27 06:45:56;;;;;;;;;;;19.80;54.40;;;;;;5146150;27;19927;-54
2022/08/27 06:48:22;;;;;;;;;;;20.20;60.20;;;;;;5144841;27;19927;-46
2022/08/27 06:50:47;;;;;;;;;;;20.80;64.50;;;;;;5142560;27;19930;-45
2022/08/27 06:53:13;;;;;;;;;;;21.50;64.90;;;;;;5147982;27;19939;-49
2022/08/27 06:55:42;;;;;;;;;;;21.30;61.90;;;;;;5139006;27;19927;-47
2022/08/27 06:58:08;;;;;;;;;;;20.70;59.50;;;;;;5139853;27;19975;-48
2022/08/27 07:00:34;;;;;;;;;;;20.30;57.10;;;;;;5147895;27;20347;-45
2022/08/27 07:03:02;;;;;;;;;;;20.40;55.30;;;;;;5142246;27;19927;-46
2022/08/27 07:05:28;;;;;;;;;;;20.20;55.00;;;;;;5142351;27;20343;-45
2022/08/27 07:07:54;;;;;;;;;;;19.90;54.40;;;;;;5147961;27;19927;-46
2022/08/27 07:10:19;;;;;;;;;;;20.00;54.00;;;;;;5142228;27;19934;-47
2022/08/27 07:12:45;;;;;;;;;;;20.30;61.20;;;;;;5147951;27;20346;-47
2022/08/27 07:15:11;;;;;;;;;;;20.90;64.60;;;;;;5137264;27;19980;-49
2022/08/27 07:17:39;;;;;;;;;;;21.60;65.20;;;;;;5142113;27;19929;-46
2022/08/27 07:20:05;;;;;;;;;;;21.30;61.40;;;;;;5147804;27;20365;-46
2022/08/27 07:22:31;;;;;;;;;;;20.80;58.70;;;;;;5142201;27;20363;-46
2022/08/27 07:24:57;;;;;;;;;;;20.40;56.90;;;;;;5142570;27;19950;-47
2022/08/27 07:27:23;;;;;;;;;;;20.20;55.60;;;;;;5147834;27;19948;-47
2022/08/27 07:29:48;;;;;;;;;;;20.00;54.60;;;;;;5142094;27;19931;-48
2022/08/27 07:32:14;;;;;;;;;;;19.90;54.50;;;;;;5144331;27;20446;-46
2022/08/27 07:34:40;;;;;;;;;;;19.80;54.90;;;;;;5140100;27;19927;-46
2022/08/27 07:37:06;;;;;;;;;;;20.40;61.90;;;;;;5141955;27;19923;-46
2022/08/27 07:39:32;;;;;;;;;;;21.00;65.00;;;;;;5147524;27;20014;-47
2022/08/27 07:44:42;;;;;;;;;;;21.10;60.90;;;;;;5142221;27;20285;-45
2022/08/27 07:47:08;;;;;;;;;;;20.60;58.30;;;;;;5145706;27;20033;-46
2022/08/27 07:49:34;;;;;;;;;;;20.40;56.80;;;;;;5141948;27;20470;-45
2022/08/27 07:52:00;;;;;;;;;;;20.20;55.40;;;;;;5136869;27;19927;-45
2022/08/27 07:54:26;;;;;;;;;;;19.90;54.50;;;;;;5147194;27;19927;-48
2022/08/27 07:56:52;;;;;;;;;;;19.90;54.30;;;;;;5142066;27;20442;-46
2022/08/27 07:59:18;;;;;;;;;;;20.20;57.10;;;;;;5147321;27;19927;-46
2022/08/27 08:01:44;;;;;;;;;;;20.60;63.90;;;;;;5142055;27;19923;-47
2022/08/27 08:04:10;;;;;;;;;;;21.30;65.60;;;;;;5141976;27;19923;-48
2022/08/27 08:06:37;;;;;;;;;;;21.70;63.30;;;;;;5128964;27;20387;-48
2022/08/27 08:09:03;;;;;;;;;;;21.00;59.60;;;;;;5138720;27;20310;-46
2022/08/27 08:11:29;;;;;;;;;;;20.50;57.60;;;;;;5144082;27;20657;-46
2022/08/27 08:13:54;;;;;;;;;;;20.30;56.20;;;;;;5151254;27;19974;-46
2022/08/27 08:16:22;;;;;;;;;;;20.20;55.00;;;;;;5145542;27;20017;-45
2022/08/27 08:18:48;;;;;;;;;;;20.10;54.30;;;;;;5150200;27;19923;-56
2022/08/27 08:21:13;;;;;;;;;;;19.80;54.70;;;;;;5142718;27;20374;-47
2022/08/27 08:23:39;;;;;;;;;;;20.40;62.30;;;;;;5145105;27;20294;-47
2022/08/27 08:26:07;;;;;;;;;;;21.10;65.20;;;;;;5150913;27;19996;-47
2022/08/27 08:28:32;;;;;;;;;;;21.70;65.50;;;;;;5140376;27;19983;-49
2022/08/27 08:30:58;;;;;;;;;;;21.20;61.40;;;;;;5144969;27;19923;-47
2022/08/27 08:33:24;;;;;;;;;;;20.70;58.50;;;;;;5150466;27;20644;-47
2022/08/27 08:35:50;;;;;;;;;;;20.50;56.70;;;;;;5145068;27;20298;-50
2022/08/27 08:38:16;;;;;;;;;;;20.20;56.00;;;;;;5128300;27;19923;-55
2022/08/27 08:40:43;;;;;;;;;;;20.10;55.20;;;;;;5149302;27;19923;-46
2022/08/27 08:43:17;;;;;;;;;;;19.90;54.70;;;;;;5144997;27;19927;-48
2022/08/27 08:45:43;;;;;;;;;;;19.80;55.30;;;;;;5145692;27;20022;-46
2022/08/27 08:48:13;;;;;;;;;;;20.50;62.50;;;;;;5141572;27;19939;-47
2022/08/27 08:50:58;;;;;;;;;;;21.10;65.60;;;;;;5144770;27;19923;-47
2022/08/27 08:53:42;;;;;;;;;;;21.70;65.10;;;;;;5150185;27;19927;-47
2022/08/27 08:56:09;;;;;;;;;;;20.90;60.80;;;;;;5147902;27;20003;-50
2022/08/27 08:58:40;;;;;;;;;;;20.50;58.30;;;;;;5144589;27;19929;-47
2022/08/27 09:01:06;;;;;;;;;;;20.30;56.20;;;;;;5148786;27;19923;-48
2022/08/27 09:03:34;;;;;;;;;;;20.20;55.00;;;;;;5142797;27;19976;-46
2022/08/27 09:06:08;;;;;;;;;;;20.10;54.50;;;;;;5141114;27;19924;-46
2022/08/27 09:08:35;;;;;;;;;;;19.90;54.30;;;;;;5148879;27;19923;-47
2022/08/27 09:11:19;;;;;;;;;;;19.90;56.90;;;;;;5144317;27;19923;-47
2022/08/27 09:14:03;;;;;;;;;;;20.50;63.90;;;;;;5144302;27;19930;-47
2022/08/27 09:16:31;;;;;;;;;;;21.30;66.00;;;;;;5149789;27;19931;-45
2022/08/27 09:18:56;;;;;;;;;;;21.70;63.80;;;;;;5144331;27;19923;-45
2022/08/27 09:21:34;;;;;;;;;;;20.80;60.40;;;;;;5143186;27;19930;-46
2022/08/27 09:24:12;;;;;;;;;;;20.60;58.40;;;;;;5144683;27;19968;-49
2022/08/27 09:26:38;;;;;;;;;;;20.50;56.70;;;;;;5142793;27;19933;-48
2022/08/27 09:29:20;;;;;;;;;;;20.30;55.50;;;;;;5140745;27;20030;-46
2022/08/27 09:31:47;;;;;;;;;;;20.00;54.40;;;;;;5149800;27;19979;-46
2022/08/27 09:34:13;;;;;;;;;;;19.80;54.20;;;;;;5141830;27;19931;-52
2022/08/27 09:36:48;;;;;;;;;;;20.30;61.90;;;;;;5144151;27;20697;-51
2022/08/27 09:39:14;;;;;;;;;;;20.90;65.60;;;;;;5147590;27;19931;-46
2022/08/27 09:41:46;;;;;;;;;;;21.60;66.30;;;;;;5139656;27;19950;-50
2022/08/27 09:44:13;;;;;;;;;;;21.10;62.10;;;;;;5142190;27;19927;-46
2022/08/27 09:46:49;;;;;;;;;;;20.60;59.00;;;;;;5149403;27;19923;-46
2022/08/27 09:49:15;;;;;;;;;;;20.40;57.00;;;;;;5143716;27;19927;-46
2022/08/27 09:51:41;;;;;;;;;;;20.20;55.50;;;;;;5148451;27;19970;-54
2022/08/27 09:54:07;;;;;;;;;;;20.00;55.00;;;;;;5143641;27;20397;-46
2022/08/27 09:56:40;;;;;;;;;;;19.90;54.80;;;;;;5143387;27;19923;-46
2022/08/27 09:59:26;;;;;;;;;;;20.20;60.60;;;;;;5144486;27;19923;-49
2022/08/27 10:02:06;;;;;;;;;;;20.80;65.40;;;;;;5141581;27;19931;-45
2022/08/27 10:04:45;;;;;;;;;;;21.60;66.40;;;;;;5143070;27;19927;-49
2022/08/27 10:07:30;;;;;;;;;;;21.30;62.40;;;;;;5147954;27;19927;-55
2022/08/27 10:10:16;;;;;;;;;;;20.70;59.60;;;;;;5148791;27;19927;-45
2022/08/27 10:12:47;;;;;;;;;;;20.30;57.40;;;;;;5142977;27;19923;-46
2022/08/27 10:15:13;;;;;;;;;;;20.20;56.10;;;;;;5140330;27;19931;-46
2022/08/27 10:17:58;;;;;;;;;;;20.10;54.70;;;;;;5143989;27;20393;-48
2022/08/27 10:20:41;;;;;;;;;;;19.90;54.80;;;;;;5140981;27;19923;-46
2022/08/27 10:23:33;;;;;;;;;;;19.90;54.30;;;;;;5141199;27;20412;-45
2022/08/27 10:26:02;;;;;;;;;;;20.30;61.90;;;;;;5123937;27;20289;-48
2022/08/27 10:28:32;;;;;;;;;;;21.00;66.00;;;;;;5142919;27;19989;-47
2022/08/27 10:31:02;;;;;;;;;;;21.70;66.30;;;;;;5141551;27;20005;-47
2022/08/27 10:33:34;;;;;;;;;;;21.20;61.90;;;;;;5129428;27;19923;-47
2022/08/27 10:36:09;;;;;;;;;;;20.80;59.20;;;;;;5138795;27;20048;-45
2022/08/27 10:38:39;;;;;;;;;;;20.50;57.20;;;;;;5140480;27;19924;-46
2022/08/27 10:41:23;;;;;;;;;;;20.20;56.10;;;;;;5146908;27;19927;-46
2022/08/27 10:43:55;;;;;;;;;;;20.30;55.30;;;;;;5142590;27;20374;-45
2022/08/27 10:46:33;;;;;;;;;;;19.90;54.90;;;;;;5140687;27;19998;-46
2022/08/27 10:49:03;;;;;;;;;;;20.10;56.10;;;;;;5148186;27;20044;-46
2022/08/27 10:51:29;;;;;;;;;;;20.60;63.90;;;;;;5142475;27;19926;-47
2022/08/27 10:54:04;;;;;;;;;;;21.30;66.50;;;;;;5140305;27;20481;-46
2022/08/27 10:56:49;;;;;;;;;;;21.60;65.10;;;;;;5145540;27;19992;-46
2022/08/27 10:59:17;;;;;;;;;;;20.80;60.30;;;;;;5142396;27;19923;-50
2022/08/27 11:01:46;;;;;;;;;;;20.40;58.50;;;;;;5142073;27;20206;-47
2022/08/27 11:04:13;;;;;;;;;;;20.30;56.30;;;;;;5147693;27;20364;-46
2022/08/27 11:06:48;;;;;;;;;;;20.00;55.40;;;;;;5142342;27;19931;-46
2022/08/27 11:09:16;;;;;;;;;;;20.00;54.50;;;;;;5142371;27;19923;-54
2022/08/27 11:11:43;;;;;;;;;;;20.00;59.60;;;;;;5147452;27;19955;-48
2022/08/27 11:14:13;;;;;;;;;;;20.80;64.90;;;;;;5136981;27;19972;-46
2022/08/27 11:16:40;;;;;;;;;;;21.30;66.70;;;;;;5147488;27;19927;-46
2022/08/27 11:19:17;;;;;;;;;;;21.50;64.00;;;;;;5142264;27;20025;-46
2022/08/27 11:21:44;;;;;;;;;;;20.80;60.40;;;;;;5141071;27;19976;-46
2022/08/27 11:24:10;;;;;;;;;;;20.30;58.30;;;;;;5146372;27;19927;-46
2022/08/27 11:26:36;;;;;;;;;;;20.30;56.40;;;;;;5142063;27;19937;-45
2022/08/27 11:29:05;;;;;;;;;;;20.30;55.40;;;;;;5141971;27;19923;-46
2022/08/27 11:31:34;;;;;;;;;;;20.00;54.80;;;;;;5142457;27;19923;-45
2022/08/27 11:34:14;;;;;;;;;;;19.80;54.90;;;;;;5139973;27;19922;-47
2022/08/27 11:37:06;;;;;;;;;;;20.10;59.00;;;;;;5141798;27;20198;-48
2022/08/27 11:39:43;;;;;;;;;;;20.80;65.00;;;;;;5122225;27;20010;-47
2022/08/27 11:42:21;;;;;;;;;;;21.50;66.60;;;;;;5140414;27;19927;-44
2022/08/27 11:44:47;;;;;;;;;;;21.20;62.60;;;;;;5141947;27;19923;-46
2022/08/27 11:47:17;;;;;;;;;;;20.70;59.40;;;;;;5151752;27;19976;-46
2022/08/27 11:49:53;;;;;;;;;;;20.50;57.60;;;;;;5140929;27;19937;-50
2022/08/27 11:52:23;;;;;;;;;;;20.30;56.50;;;;;;5143669;27;20016;-48
2022/08/27 11:54:50;;;;;;;;;;;20.10;54.90;;;;;;5151427;27;19929;-46
2022/08/27 11:57:36;;;;;;;;;;;19.90;54.80;;;;;;5145684;27;19923;-45
2022/08/27 12:00:13;;;;;;;;;;;19.90;54.40;;;;;;5145271;27;19945;-47
2022/08/27 12:02:39;;;;;;;;;;;20.50;62.10;;;;;;5151301;27;20378;-45
2022/08/27 12:05:18;;;;;;;;;;;21.10;66.00;;;;;;5142315;27;19945;-48
2022/08/27 12:07:43;;;;;;;;;;;21.70;66.20;;;;;;5140358;27;19982;-46
2022/08/27 12:10:16;;;;;;;;;;;21.10;61.30;;;;;;5149193;27;19923;-47
2022/08/27 12:12:41;;;;;;;;;;;20.70;59.40;;;;;;5143994;27;20419;-46
2022/08/27 12:15:09;;;;;;;;;;;20.50;57.40;;;;;;5145188;27;19923;-46
2022/08/27 12:17:46;;;;;;;;;;;20.30;56.00;;;;;;5147531;27;19923;-47
2022/08/27 12:20:38;;;;;;;;;;;20.10;55.10;;;;;;5144004;27;20017;-46
2022/08/27 12:23:42;;;;;;;;;;;19.90;55.00;;;;;;5143534;27;20016;-45
2022/08/27 12:26:11;;;;;;;;;;;20.00;56.90;;;;;;5143763;27;20020;-47
2022/08/27 12:28:37;;;;;;;;;;;20.80;65.00;;;;;;5143321;27;19923;-47
2022/08/27 12:31:05;;;;;;;;;;;21.40;66.60;;;;;;5144958;27;19923;-45
2022/08/27 12:33:31;;;;;;;;;;;21.50;64.00;;;;;;5150425;27;20374;-47
2022/08/27 12:35:57;;;;;;;;;;;21.00;60.40;;;;;;5145062;27;20151;-47
2022/08/27 12:38:33;;;;;;;;;;;20.70;58.10;;;;;;5145098;27;20335;-47
2022/08/27 12:41:02;;;;;;;;;;;20.40;56.50;;;;;;5150625;27;20014;-46
2022/08/27 12:43:32;;;;;;;;;;;20.20;55.70;;;;;;5144919;27;19937;-46
2022/08/27 12:46:01;;;;;;;;;;;20.10;55.20;;;;;;5142171;27;20382;-55
2022/08/27 12:48:27;;;;;;;;;;;19.80;55.10;;;;;;5149267;27;20254;-46
2022/08/27 12:50:58;;;;;;;;;;;19.90;55.90;;;;;;5144766;27;19944;-47
2022/08/27 12:53:33;;;;;;;;;;;20.50;63.20;;;;;;5150315;27;19927;-50
2022/08/27 12:56:01;;;;;;;;;;;21.10;66.30;;;;;;5144880;27;19973;-44
2022/08/27 12:58:30;;;;;;;;;;;21.50;64.70;;;;;;5144764;27;19934;-46
2022/08/27 13:00:59;;;;;;;;;;;20.90;61.70;;;;;;5149864;27;20423;-46
2022/08/27 13:03:28;;;;;;;;;;;20.60;58.70;;;;;;5141000;27;20271;-48
2022/08/27 13:05:56;;;;;;;;;;;20.30;57.00;;;;;;5141472;27;20009;-47
2022/08/27 13:08:26;;;;;;;;;;;20.10;56.00;;;;;;5149885;27;19950;-46
2022/08/27 13:10:51;;;;;;;;;;;20.00;55.00;;;;;;5144486;27;20424;-45
2022/08/27 13:13:18;;;;;;;;;;;20.00;54.40;;;;;;5144515;27;19927;-45
2022/08/27 13:15:48;;;;;;;;;;;20.00;58.90;;;;;;5149890;27;20059;-50
2022/08/27 13:18:14;;;;;;;;;;;20.70;64.40;;;;;;5143282;27;20010;-46
2022/08/27 13:20:40;;;;;;;;;;;21.30;66.60;;;;;;5148456;27;20002;-48
2022/08/27 13:23:13;;;;;;;;;;;21.60;64.10;;;;;;5139212;27;19931;-46
2022/08/27 13:25:39;;;;;;;;;;;20.90;60.90;;;;;;5142327;27;19975;-46
2022/08/27 13:28:14;;;;;;;;;;;20.60;58.40;;;;;;5149556;27;20006;-45
2022/08/27 13:30:42;;;;;;;;;;;20.30;56.70;;;;;;5142845;27;19923;-47
2022/08/27 13:33:09;;;;;;;;;;;20.20;55.80;;;;;;5142597;27;20034;-45
2022/08/27 13:35:36;;;;;;;;;;;20.00;55.00;;;;;;5149642;27;19927;-47
2022/08/27 13:38:02;;;;;;;;;;;19.90;54.40;;;;;;5144047;27;20399;-47
2022/08/27 13:40:33;;;;;;;;;;;20.30;60.80;;;;;;5139400;27;19934;-46
2022/08/27 13:43:03;;;;;;;;;;;20.80;65.50;;;;;;5148809;27;19949;-45
2022/08/27 13:45:29;;;;;;;;;;;21.50;66.60;;;;;;5143830;27;20006;-46
2022/08/27 13:47:55;;;;;;;;;;;21.20;63.10;;;;;;5145977;27;19927;-54
2022/08/27 13:50:22;;;;;;;;;;;20.70;60.50;;;;;;5147299;27;19931;-46
2022/08/27 13:55:33;;;;;;;;;;;20.30;56.80;;;;;;5146907;27;20021;-53
2022/08/27 13:57:58;;;;;;;;;;;20.20;55.60;;;;;;5140916;27;19973;-50
2022/08/27 14:00:26;;;;;;;;;;;20.00;55.50;;;;;;5141546;27;20440;-46
2022/08/27 14:02:52;;;;;;;;;;;20.00;54.70;;;;;;5149035;27;19927;-48
2022/08/27 14:05:24;;;;;;;;;;;20.30;60.50;;;;;;5143749;27;20011;-47
2022/08/27 14:07:50;;;;;;;;;;;20.90;65.20;;;;;;5143011;27;20042;-47
2022/08/27 14:10:16;;;;;;;;;;;21.60;66.40;;;;;;5147701;27;20276;-45
2022/08/27 14:12:42;;;;;;;;;;;21.30;62.60;;;;;;5143168;27;20054;-45
2022/08/27 14:15:20;;;;;;;;;;;20.80;59.70;;;;;;5143393;27;19923;-49
2022/08/27 14:17:46;;;;;;;;;;;20.60;57.40;;;;;;5142103;27;20397;-46
2022/08/27 14:20:14;;;;;;;;;;;20.40;56.10;;;;;;5142757;27;19927;-46
2022/08/27 14:22:40;;;;;;;;;;;20.20;55.60;;;;;;5147190;27;19923;-54
2022/08/27 14:25:06;;;;;;;;;;;20.30;54.70;;;;;;5144613;27;19927;-45
2022/08/27 14:27:33;;;;;;;;;;;19.90;54.40;;;;;;5141618;27;20026;-46
2022/08/27 14:29:59;;;;;;;;;;;20.00;59.10;;;;;;5147573;27;20453;-46
2022/08/27 14:32:25;;;;;;;;;;;20.80;64.40;;;;;;5143016;27;19923;-46
2022/08/27 14:34:51;;;;;;;;;;;21.30;66.50;;;;;;5139885;27;19934;-46